Time;durP1;ratioP1;P1;durP2;ratioP2;P2;SDS_P1;SDS_P2;PMS_P1;PMS_P2;Temp;Humidity;BMP_temperature;BMP_pressure;BME280_temperature;BME280_humidity;BME280_pressure;Samples;Min_cycle;Max_cycle;Signal;HPM_P1;HPM_P2
2022/04/29 00:01:56;;;;;;;4.80;4.40;;;;;;;8.65;100.00;101261.97;5016175;28;20193;-53
2022/04/29 00:04:25;;;;;;;4.77;4.37;;;;;;;8.59;100.00;101255.84;5013529;28;20193;-53
2022/04/29 00:06:51;;;;;;;4.70;4.40;;;;;;;8.54;100.00;101255.78;5016258;28;20229;-53
2022/04/29 00:09:17;;;;;;;4.77;4.37;;;;;;;8.49;100.00;101260.00;5013438;28;20803;-53
2022/04/29 00:11:43;;;;;;;4.20;3.90;;;;;;;8.46;100.00;101255.66;5018852;28;20194;-53
2022/04/29 00:14:09;;;;;;;4.87;4.50;;;;;;;8.42;100.00;101261.59;5017957;28;20688;-53
2022/04/29 00:16:35;;;;;;;4.37;4.07;;;;;;;8.38;100.00;101267.56;5018293;28;20225;-53
2022/04/29 00:19:00;;;;;;;4.70;4.33;;;;;;;8.34;100.00;101269.22;5015151;28;20193;-53
2022/04/29 00:21:25;;;;;;;4.53;4.23;;;;;;;8.33;100.00;101269.19;5017257;28;20257;-53
2022/04/29 00:23:51;;;;;;;4.60;4.27;;;;;;;8.30;100.00;101264.88;5018386;28;20189;-53
2022/04/29 00:26:16;;;;;;;4.50;4.10;;;;;;;8.28;100.00;101270.81;5016664;28;20607;-52
2022/04/29 00:28:41;;;;;;;4.47;4.03;;;;;;;8.26;100.00;101262.19;5016566;28;20194;-52
2022/04/29 00:31:07;;;;;;;4.90;4.50;;;;;;;8.24;100.00;101260.44;5018217;28;20211;-52
2022/04/29 00:33:32;;;;;;;4.77;4.40;;;;;;;8.22;100.00;101256.13;5016685;28;20190;-52
2022/04/29 00:35:57;;;;;;;5.10;4.70;;;;;;;8.19;100.00;101253.47;5018617;28;20229;-52
2022/04/29 00:38:23;;;;;;;5.10;4.70;;;;;;;8.17;100.00;101250.88;5014926;28;20206;-53
2022/04/29 00:40:49;;;;;;;5.00;4.60;;;;;;;8.15;100.00;101249.13;5014135;28;20210;-53
2022/04/29 00:43:14;;;;;;;5.37;4.87;;;;;;;8.14;100.00;101239.66;5019869;28;20834;-53
2022/04/29 00:45:39;;;;;;;5.03;4.63;;;;;;;8.13;100.00;101232.78;5012926;28;20237;-53
2022/04/29 00:48:07;;;;;;;5.57;5.17;;;;;;;8.11;100.00;101245.63;5015862;28;20221;-53
2022/04/29 00:50:33;;;;;;;5.17;4.73;;;;;;;8.07;100.00;101249.00;5016019;28;20249;-53
2022/04/29 00:53:01;;;;;;;5.90;5.30;;;;;;;8.04;100.00;101243.81;5019563;28;20273;-53
2022/04/29 00:55:28;;;;;;;5.50;5.03;;;;;;;8.02;100.00;101237.75;5018916;28;20216;-52
2022/04/29 00:57:57;;;;;;;5.23;4.83;;;;;;;8.01;100.00;101243.75;5017457;28;20189;-53
2022/04/29 01:00:22;;;;;;;5.33;4.83;;;;;;;7.98;100.00;101246.25;5016604;28;20220;-53
2022/04/29 01:02:51;;;;;;;5.17;4.77;;;;;;;7.94;100.00;101243.63;5018390;28;20248;-53
2022/04/29 01:05:18;;;;;;;5.40;5.00;;;;;;;7.91;100.00;101243.59;5015422;28;22676;-53
2022/04/29 01:07:45;;;;;;;5.63;5.13;;;;;;;7.90;100.00;101241.84;5023024;28;20200;-54
2022/04/29 01:10:12;;;;;;;5.43;5.03;;;;;;;7.89;100.00;101253.00;5022581;28;20260;-53
2022/04/29 01:12:40;;;;;;;4.50;4.20;;;;;;;7.89;100.00;101262.44;5018005;28;20207;-52
2022/04/29 01:15:13;;;;;;;4.80;4.40;;;;;;;7.86;100.00;101247.78;5020265;28;20591;-53
2022/04/29 01:17:39;;;;;;;4.87;4.53;;;;;;;7.83;100.00;101241.72;5015313;28;20194;-53
2022/04/29 01:20:08;;;;;;;5.70;5.30;;;;;;;7.78;100.00;101239.06;5022093;28;20245;-54
2022/04/29 01:22:33;;;;;;;5.40;5.00;;;;;;;7.74;100.00;101243.28;5014466;28;20695;-53
2022/04/29 01:24:59;;;;;;;5.97;5.47;;;;;;;7.71;100.00;101248.41;5018998;28;20268;-53
2022/04/29 01:27:25;;;;;;;5.80;5.40;;;;;;;7.69;100.00;101246.63;5015639;28;20643;-53
2022/04/29 01:30:11;;;;;;;6.00;5.47;;;;;;;7.63;100.00;101245.69;5017130;28;20270;-52
2022/04/29 01:32:37;;;;;;;5.70;5.20;;;;;;;7.61;100.00;101238.75;5018078;28;20181;-53
2022/04/29 01:35:04;;;;;;;5.80;5.40;;;;;;;7.57;100.00;101235.25;5018552;28;20234;-53
2022/04/29 01:37:30;;;;;;;6.97;4.90;;;;;;;7.59;100.00;101235.25;5018117;28;20195;-53
2022/04/29 01:39:56;;;;;;;5.07;4.63;;;;;;;7.61;100.00;101238.75;5022143;28;20739;-53
2022/04/29 01:42:25;;;;;;;5.90;5.40;;;;;;;7.58;100.00;101231.84;5019875;28;20202;-53
2022/04/29 01:44:50;;;;;;;5.43;5.03;;;;;;;7.56;100.00;101236.09;5017158;28;20269;-54
2022/04/29 01:47:16;;;;;;;5.40;5.00;;;;;;;7.53;100.00;101233.44;5017984;28;21112;-54
2022/04/29 01:49:41;;;;;;;5.63;5.23;;;;;;;7.52;100.00;101228.28;5018408;28;20316;-53
2022/04/29 01:52:08;;;;;;;6.00;5.50;;;;;;;7.50;100.00;101233.38;5013384;28;20202;-53
2022/04/29 01:54:34;;;;;;;5.50;5.00;;;;;;;7.46;100.00;101231.59;5013381;28;20204;-53
2022/04/29 01:57:00;;;;;;;5.97;5.40;;;;;;;7.42;100.00;101224.66;5016914;28;20242;-53
2022/04/29 01:59:27;;;;;;;5.43;5.03;;;;;;;7.37;100.00;101218.53;5014159;28;20187;-54
2022/04/29 02:01:53;;;;;;;6.77;6.27;;;;;;;7.32;100.00;101232.22;5016914;28;20190;-54
2022/04/29 02:04:18;;;;;;;6.73;5.60;;;;;;;7.28;100.00;101232.97;5018224;28;20268;-53
2022/04/29 02:06:43;;;;;;;6.30;5.80;;;;;;;7.23;100.00;101223.44;5014452;28;20259;-53
2022/04/29 02:09:09;;;;;;;6.17;5.70;;;;;;;7.21;100.00;101230.25;5014218;28;20200;-53
2022/04/29 02:11:34;;;;;;;5.83;5.43;;;;;;;7.20;100.00;101221.66;5009105;28;20691;-54
2022/04/29 02:14:01;;;;;;;6.40;5.80;;;;;;;7.21;100.00;101219.97;5012698;28;20192;-53
2022/04/29 02:16:26;;;;;;;6.43;5.93;;;;;;;7.21;100.00;101209.66;5023893;28;20192;-53
2022/04/29 02:18:51;;;;;;;6.50;6.00;;;;;;;7.22;100.00;101208.81;5019661;28;20192;-54
2022/04/29 02:21:17;;;;;;;6.30;5.73;;;;;;;7.20;100.00;101210.50;5025750;28;20767;-54
2022/04/29 02:23:43;;;;;;;6.47;5.97;;;;;;;7.20;100.00;101205.34;5021729;28;20207;-53
2022/04/29 02:26:08;;;;;;;5.73;5.33;;;;;;;7.17;100.00;101199.28;5022123;28;20187;-54
2022/04/29 02:28:34;;;;;;;6.17;5.67;;;;;;;7.17;100.00;101199.28;5020563;28;20193;-53
2022/04/29 02:31:00;;;;;;;6.90;6.30;;;;;;;7.17;100.00;101201.00;5016540;28;20198;-53
2022/04/29 02:33:27;;;;;;;6.60;6.10;;;;;;;7.14;100.00;101209.53;5022971;28;20239;-53
2022/04/29 02:35:53;;;;;;;6.93;6.37;;;;;;;7.12;100.00;101203.47;5023518;28;20212;-53
2022/04/29 02:38:18;;;;;;;6.63;6.13;;;;;;;7.09;100.00;101208.59;5016650;28;20232;-53
2022/04/29 02:40:44;;;;;;;6.67;6.17;;;;;;;7.07;100.00;101197.38;5017588;28;20244;-54
2022/04/29 02:43:10;;;;;;;6.77;6.27;;;;;;;7.04;100.00;101199.00;5018976;28;20189;-52
2022/04/29 02:45:35;;;;;;;6.70;6.20;;;;;;;6.97;100.00;101206.63;5019035;28;20659;-53
2022/04/29 02:48:00;;;;;;;7.27;6.57;;;;;;;6.94;100.00;101209.13;5018397;28;20678;-53
2022/04/29 02:50:26;;;;;;;6.27;5.80;;;;;;;6.89;100.00;101208.16;5023063;28;20204;-55
2022/04/29 02:52:51;;;;;;;6.40;5.90;;;;;;;6.85;100.00;101211.50;5020052;28;20211;-52
2022/04/29 02:55:17;;;;;;;6.70;6.20;;;;;;;6.83;100.00;101206.31;5018472;28;20213;-53
2022/04/29 02:57:43;;;;;;;6.70;6.20;;;;;;;6.80;100.00;101202.81;5014295;28;20191;-53
2022/04/29 03:00:09;;;;;;;6.70;6.10;;;;;;;6.79;100.00;101212.25;5023371;28;20239;-53
2022/04/29 03:02:34;;;;;;;7.20;6.70;;;;;;;6.80;100.00;101211.41;5016434;28;20277;-52
2022/04/29 03:05:00;;;;;;;7.33;6.73;;;;;;;6.78;100.00;101209.63;5017436;28;20657;-52
2022/04/29 03:07:25;;;;;;;7.00;6.40;;;;;;;6.76;100.00;101203.59;5016146;28;20244;-53
2022/04/29 03:09:51;;;;;;;7.50;6.90;;;;;;;6.69;100.00;101206.03;5016968;28;20624;-53
2022/04/29 03:12:16;;;;;;;7.23;6.63;;;;;;;6.67;100.00;101193.97;5015296;28;20622;-53
2022/04/29 03:14:42;;;;;;;7.37;6.77;;;;;;;6.65;100.00;101196.50;5022710;28;20297;-54
2022/04/29 03:18:17;;;;;;;6.83;6.23;;;;;;;6.64;100.00;101187.06;5020925;28;20309;-53
2022/04/29 03:19:58;;;;;;;7.40;6.80;;;;;;;6.65;100.00;101195.66;5018698;28;20241;-53
2022/04/29 03:22:23;;;;;;;7.37;6.77;;;;;;;6.65;100.00;101199.09;5017996;28;20184;-53
2022/04/29 03:24:48;;;;;;;7.23;6.73;;;;;;;6.64;100.00;101202.47;5023863;28;20643;-53
2022/04/29 03:27:14;;;;;;;7.73;7.10;;;;;;;6.66;100.00;101202.50;5015652;28;20191;-53
2022/04/29 03:29:39;;;;;;;7.80;7.17;;;;;;;6.65;100.00;101206.78;5021916;28;20227;-53
2022/04/29 03:32:05;;;;;;;7.57;6.87;;;;;;;6.64;100.00;101206.78;5019824;28;20192;-54
2022/04/29 03:34:30;;;;;;;7.67;7.07;;;;;;;6.63;100.00;101198.19;5021273;28;20543;-53
2022/04/29 03:36:56;;;;;;;7.13;6.53;;;;;;;6.62;100.00;101201.56;5019680;28;20182;-53
2022/04/29 03:39:21;;;;;;;7.43;6.83;;;;;;;6.61;100.00;101202.41;5015675;28;20197;-54
2022/04/29 03:41:46;;;;;;;7.60;7.00;;;;;;;6.59;100.00;101204.06;5022419;28;20717;-53
2022/04/29 03:44:12;;;;;;;8.10;7.43;;;;;;;6.58;100.00;101201.47;5020667;28;20559;-54
2022/04/29 03:46:37;;;;;;;7.33;6.73;;;;;;;6.54;100.00;101205.69;5024182;28;20195;-53
2022/04/29 03:51:46;;;;;;;8.87;8.10;;;;;;;6.49;100.00;101207.28;5020584;28;20206;-53
2022/04/29 03:54:12;;;;;;;8.00;7.33;;;;;;;6.44;100.00;101211.44;5008413;28;20208;-52
2022/04/29 03:56:37;;;;;;;8.20;7.43;;;;;;;6.42;100.00;101211.41;5007764;28;20949;-52
2022/04/29 03:59:02;;;;;;;8.13;7.43;;;;;;;6.38;100.00;101207.91;5010702;28;20288;-53
2022/04/29 04:01:29;;;;;;;7.57;6.87;;;;;;;6.38;100.00;101201.88;5016351;28;20721;-52
2022/04/29 04:03:55;;;;;;;8.27;7.53;;;;;;;6.35;100.00;101205.28;5015094;28;20184;-52
2022/04/29 04:09:04;;;;;;;8.73;7.93;;;;;;;6.31;100.00;101208.59;5016249;28;20554;-53
2022/04/29 04:11:30;;;;;;;8.37;7.57;;;;;;;6.33;100.00;101211.22;5018582;28;20212;-53
2022/04/29 04:13:55;;;;;;;8.40;7.70;;;;;;;6.34;100.00;101200.97;5018234;28;20551;-53
2022/04/29 04:16:23;;;;;;;8.07;7.37;;;;;;;6.37;100.00;101210.44;5011574;28;20204;-52
2022/04/29 04:18:49;;;;;;;8.17;7.53;;;;;;;6.38;100.00;101207.91;5019652;28;20215;-52
2022/04/29 04:21:15;;;;;;;7.57;6.87;;;;;;;6.42;100.00;101201.13;5021495;28;20211;-53
2022/04/29 04:23:40;;;;;;;7.90;7.20;;;;;;;6.45;100.00;101211.50;5022792;28;20277;-52
2022/04/29 04:26:05;;;;;;;8.17;7.57;;;;;;;6.48;100.00;101208.13;5021050;28;20189;-52
2022/04/29 04:28:31;;;;;;;7.93;7.23;;;;;;;6.50;100.00;101201.31;5018162;28;20312;-52
2022/04/29 04:30:56;;;;;;;7.40;6.80;;;;;;;6.52;100.00;101205.66;5017504;28;21089;-52
2022/04/29 04:33:21;;;;;;;8.00;7.40;;;;;;;6.54;100.00;101205.69;5024256;28;20192;-52
2022/04/29 04:35:47;;;;;;;7.57;6.93;;;;;;;6.59;100.00;101216.09;5020739;28;20239;-53
2022/04/29 04:38:14;;;;;;;10.37;7.20;;;;;;;6.64;100.00;101212.78;5016922;28;20662;-52
2022/04/29 04:40:39;;;;;;;9.80;8.07;;;;;;;6.67;100.00;101210.28;5019136;28;20204;-52
2022/04/29 04:43:04;;;;;;;9.80;9.00;;;;;;;6.76;100.00;101217.31;5015786;28;20188;-52
2022/04/29 04:45:30;;;;;;;9.57;8.57;;;;;;;6.81;100.00;101223.41;5023636;28;20193;-53
2022/04/29 04:47:56;;;;;;;9.47;8.57;;;;;;;6.89;100.00;101223.59;5023729;28;20646;-53
2022/04/29 04:50:21;;;;;;;9.20;8.47;;;;;;;6.99;100.00;101228.13;5020121;28;20234;-53
2022/04/29 04:52:47;;;;;;;10.00;7.83;;;;;;;7.11;100.00;101221.47;5016908;28;20223;-52
2022/04/29 04:55:12;;;;;;;8.33;7.53;;;;;;;7.21;100.00;101222.53;5020058;28;20586;-52
2022/04/29 04:57:38;;;;;;;7.90;7.20;;;;;;;7.33;100.00;101231.34;5020514;28;20195;-52
2022/04/29 05:00:04;;;;;;;8.13;7.43;;;;;;;7.50;100.00;101235.97;5022013;28;20706;-53
2022/04/29 05:02:29;;;;;;;8.50;7.70;;;;;;;7.67;100.00;101235.41;5015989;28;20185;-52
2022/04/29 05:04:57;;;;;;;7.30;6.67;;;;;;;7.83;100.00;101249.44;5021604;28;20186;-52
2022/04/29 05:07:24;;;;;;;7.87;7.17;;;;;;;7.99;100.00;101238.56;5022716;28;20201;-53
2022/04/29 05:09:50;;;;;;;8.47;7.77;;;;;;;8.12;100.00;101236.19;5023835;28;20363;-53
2022/04/29 05:12:15;;;;;;;7.57;6.87;;;;;;;8.21;100.00;101249.22;5025734;28;20235;-53
2022/04/29 05:14:40;;;;;;;7.20;6.60;;;;;;;8.33;100.00;101245.97;5017656;28;20218;-53
2022/04/29 05:17:06;;;;;;;7.53;6.83;;;;;;;8.42;100.00;101240.09;5023738;28;20199;-53
2022/04/29 05:19:31;;;;;;;7.30;6.70;;;;;;;8.50;100.00;101247.16;5022047;28;20218;-53
2022/04/29 05:21:56;;;;;;;9.07;6.70;;;;;;;8.68;100.00;101251.69;5020157;28;20603;-53
2022/04/29 05:24:22;;;;;;;6.20;5.70;;;;;;;8.91;100.00;101256.34;5026331;28;20269;-53
2022/04/29 05:26:47;;;;;;;6.53;6.03;;;;;;;9.11;100.00;101247.97;5019419;28;20194;-53
2022/04/29 05:29:13;;;;;;;7.07;6.37;;;;;;;9.33;100.00;101250.81;5019613;28;20215;-53
2022/04/29 05:31:39;;;;;;;7.83;5.97;;;;;;;9.74;100.00;101256.44;5021291;28;20195;-53
2022/04/29 05:34:06;;;;;;;6.37;5.77;;;;;;;10.41;100.00;101254.47;5014783;28;20194;-53
2022/04/29 05:36:31;;;;;;;6.23;5.63;;;;;;;11.27;97.57;101251.44;5013103;28;20217;-52
2022/04/29 05:44:25;;;;;;;5.57;5.07;;;;;;;12.43;91.53;101270.66;5012254;28;20198;-52
2022/04/29 05:46:50;;;;;;;6.10;5.43;;;;;;;12.20;91.00;101256.81;5016000;28;20184;-53
2022/04/29 05:49:15;;;;;;;6.87;5.87;;;;;;;11.97;90.37;101261.13;5017562;28;20821;-53
2022/04/29 05:51:41;;;;;;;8.67;6.33;;;;;;;11.78;90.50;101257.66;5019429;28;20530;-52
2022/04/29 05:54:06;;;;;;;7.30;6.40;;;;;;;11.67;91.24;101257.63;5019074;28;21012;-52
2022/04/29 05:56:31;;;;;;;7.37;6.37;;;;;;;11.65;91.14;101264.53;5019833;28;20199;-52
2022/04/29 05:58:57;;;;;;;7.43;6.37;;;;;;;11.76;90.80;101278.38;5023703;28;20220;-52
2022/04/29 06:01:22;;;;;;;6.60;5.83;;;;;;;11.88;90.53;101268.00;5022579;28;20585;-52
2022/04/29 06:03:48;;;;;;;7.67;6.67;;;;;;;11.95;89.69;101265.44;5030775;28;20191;-52
2022/04/29 06:06:13;;;;;;;7.43;6.63;;;;;;;11.83;90.57;101274.94;5026544;28;20211;-52
2022/04/29 06:08:38;;;;;;;8.33;6.30;;;;;;;11.78;90.81;101262.84;5021686;28;20195;-52
2022/04/29 06:11:04;;;;;;;6.23;5.60;;;;;;;11.85;90.75;101272.34;5026924;28;20368;-53
2022/04/29 06:13:29;;;;;;;6.27;5.77;;;;;;;11.97;90.54;101263.72;5023619;28;20191;-52
2022/04/29 06:15:54;;;;;;;6.40;5.90;;;;;;;11.99;90.20;101254.25;5021900;28;20220;-52
2022/04/29 06:18:20;;;;;;;6.77;6.17;;;;;;;12.03;90.25;101254.25;5022715;28;20198;-53
2022/04/29 06:20:45;;;;;;;7.37;6.67;;;;;;;11.95;89.40;101253.31;5022750;28;20211;-53
2022/04/29 06:23:11;;;;;;;7.40;5.90;;;;;;;12.06;89.77;101255.09;5026717;28;20646;-53
2022/04/29 06:25:36;;;;;;;7.60;6.80;;;;;;;12.32;89.29;101258.56;5024117;28;20191;-53
2022/04/29 06:28:02;;;;;;;7.07;6.47;;;;;;;12.75;87.99;101254.16;5023798;28;20191;-52
2022/04/29 06:30:27;;;;;;;6.70;6.10;;;;;;;13.09;86.75;101259.25;5027889;28;20216;-52
2022/04/29 06:32:53;;;;;;;6.90;6.30;;;;;;;13.53;85.73;101250.41;5025828;28;20271;-53
2022/04/29 06:35:19;;;;;;;6.77;6.17;;;;;;;14.02;84.23;101250.97;5026093;28;20221;-53
2022/04/29 06:37:44;;;;;;;7.07;6.27;;;;;;;14.56;82.44;101245.28;5024836;28;20751;-52
2022/04/29 06:40:10;;;;;;;6.97;6.20;;;;;;;15.29;80.42;101246.19;5020571;28;20214;-53
2022/04/29 06:42:45;;;;;;;7.10;6.50;;;;;;;16.03;77.82;101245.13;5023567;28;20248;-54
2022/04/29 06:45:10;;;;;;;7.17;6.30;;;;;;;16.11;75.97;101243.25;5024100;28;20228;-52
2022/04/29 06:47:36;;;;;;;7.33;6.73;;;;;;;15.83;75.77;101250.66;5018376;28;20200;-53
2022/04/29 06:50:01;;;;;;;7.10;6.43;;;;;;;15.59;76.03;101247.50;5021394;28;20214;-52
2022/04/29 06:52:26;;;;;;;8.90;6.67;;;;;;;15.57;77.42;101238.88;5024675;28;20231;-52
2022/04/29 06:54:52;;;;;;;7.00;5.90;;;;;;;15.62;77.50;101234.41;5024165;28;20371;-52
2022/04/29 06:57:17;;;;;;;7.47;6.73;;;;;;;15.55;77.46;101245.84;5017308;28;20191;-53
2022/04/29 06:59:42;;;;;;;8.17;6.20;;;;;;;15.37;78.04;101240.00;5021263;28;20226;-52
2022/04/29 07:02:08;;;;;;;6.33;5.47;;;;;;;15.13;78.81;101237.69;5017063;28;20206;-52
2022/04/29 07:04:34;;;;;;;6.70;5.63;;;;;;;14.75;80.27;101229.44;5016376;28;20630;-53
2022/04/29 07:07:00;;;;;;;6.67;6.13;;;;;;;14.31;80.95;101229.88;5014830;28;20184;-52
2022/04/29 07:09:25;;;;;;;6.53;6.03;;;;;;;14.21;82.22;101230.00;5020856;28;20204;-52
2022/04/29 07:11:51;;;;;;;6.63;5.93;;;;;;;14.34;81.47;101229.00;5020699;28;20233;-52
2022/04/29 07:14:17;;;;;;;7.83;6.47;;;;;;;14.44;81.41;101227.16;5022721;28;20212;-53
2022/04/29 07:16:42;;;;;;;9.97;5.77;;;;;;;14.67;80.31;101228.66;5016733;28;20488;-53
2022/04/29 07:19:08;;;;;;;6.07;5.40;;;;;;;15.22;78.89;101225.41;5026939;28;20719;-53
2022/04/29 07:21:33;;;;;;;8.93;5.90;;;;;;;15.60;77.41;101222.28;5026338;28;20736;-53
2022/04/29 07:23:59;;;;;;;6.93;5.73;;;;;;;15.65;77.28;101223.09;5026149;28;20633;-53
2022/04/29 07:26:25;;;;;;;5.30;4.80;;;;;;;15.76;77.29;101212.47;5018233;28;20185;-52
2022/04/29 07:28:50;;;;;;;5.77;5.27;;;;;;;16.06;76.84;101218.09;5021210;28;20186;-53
2022/04/29 07:31:15;;;;;;;5.90;5.30;;;;;;;16.33;75.83;101223.75;5021959;28;20213;-53
2022/04/29 07:33:41;;;;;;;5.50;5.10;;;;;;;16.53;74.51;101219.00;5018824;28;20195;-53
2022/04/29 07:41:46;;;;;;;5.50;5.00;;;;;;;17.31;72.57;101207.88;5023335;28;20269;-53
2022/04/29 07:44:13;;;;;;;5.97;5.13;;;;;;;17.57;71.33;101213.41;5018833;28;20198;-53
2022/04/29 07:46:39;;;;;;;6.30;5.03;;;;;;;17.80;70.68;101205.88;5017327;28;20258;-52
2022/04/29 07:49:05;;;;;;;6.13;4.77;;;;;;;17.98;70.08;101203.72;5018242;28;21196;-53
2022/04/29 07:51:31;;;;;;;4.83;4.43;;;;;;;18.38;69.86;101207.91;5019656;28;20224;-53
2022/04/29 07:53:56;;;;;;;8.87;5.53;;;;;;;18.61;69.09;101202.94;5020274;28;20184;-53
2022/04/29 07:56:21;;;;;;;7.27;5.10;;;;;;;18.67;67.74;101205.41;5012214;28;20212;-53
2022/04/29 07:58:47;;;;;;;7.13;5.07;;;;;;;18.82;67.58;101210.22;5021894;28;20184;-53
2022/04/29 08:01:12;;;;;;;4.90;4.50;;;;;;;18.76;66.80;101207.75;5019078;28;20683;-53
2022/04/29 08:03:39;;;;;;;5.57;5.07;;;;;;;18.38;67.63;101194.81;5021182;28;20643;-53
2022/04/29 08:06:05;;;;;;;5.27;4.80;;;;;;;18.44;68.31;101199.03;5021590;28;20185;-53
2022/04/29 08:08:31;;;;;;;5.70;5.20;;;;;;;18.43;67.43;101211.28;5036495;28;20268;-57
2022/04/29 08:10:57;;;;;;;5.00;4.50;;;;;;;18.81;67.25;101203.25;5025089;28;20300;-55
2022/04/29 08:13:24;;;;;;;6.17;4.60;;;;;;;18.87;67.45;101194.34;5019529;28;20197;-54
2022/04/29 08:15:49;;;;;;;6.50;5.57;;;;;;;18.43;66.45;101195.56;5017038;28;20220;-54
2022/04/29 08:18:16;;;;;;;5.80;5.00;;;;;;;18.21;67.13;101192.66;5025043;28;20232;-53
2022/04/29 08:20:41;;;;;;;6.53;5.13;;;;;;;18.25;67.75;101189.03;5022968;28;20215;-57
2022/04/29 08:23:07;;;;;;;5.70;5.20;;;;;;;18.19;67.53;101194.44;5022642;28;20259;-53
2022/04/29 08:25:32;;;;;;;5.90;5.37;;;;;;;18.15;67.23;101190.19;5019141;28;20196;-53
2022/04/29 08:28:00;;;;;;;5.73;5.23;;;;;;;18.04;66.66;101194.84;5021716;28;20194;-51
2022/04/29 08:30:29;;;;;;;6.47;5.47;;;;;;;18.13;67.43;101195.47;5022568;28;20746;-53
2022/04/29 08:32:54;;;;;;;5.30;4.80;;;;;;;18.24;67.31;101189.94;5025743;28;20214;-54
2022/04/29 08:35:20;;;;;;;5.87;5.23;;;;;;;18.25;67.10;101193.44;5020814;28;20238;-53
2022/04/29 08:37:45;;;;;;;6.13;5.27;;;;;;;18.17;68.66;101185.78;5015841;28;20887;-54
2022/04/29 08:40:12;;;;;;;6.17;5.57;;;;;;;18.21;69.88;101186.53;5018892;28;20300;-53
2022/04/29 08:42:38;;;;;;;5.73;5.10;;;;;;;18.10;70.79;101178.97;5021317;28;20193;-53
2022/04/29 08:45:08;;;;;;;5.80;5.30;;;;;;;18.16;71.55;101178.81;5019485;28;20643;-54
2022/04/29 08:47:35;;;;;;;5.40;4.90;;;;;;;18.22;71.87;101176.03;5017163;28;20186;-53
2022/04/29 08:50:02;;;;;;;5.90;5.40;;;;;;;18.17;71.23;101171.78;5021271;28;20295;-53
2022/04/29 08:52:28;;;;;;;8.30;6.43;;;;;;;17.88;69.35;101168.16;5018890;28;20201;-52
2022/04/29 09:00:23;;;;;;;6.87;5.47;;;;;;;18.15;70.07;101171.84;5020914;28;20716;-51
2022/04/29 09:02:49;;;;;;;6.10;5.60;;;;;;;18.22;69.84;101167.31;5019277;28;20194;-51
2022/04/29 09:05:14;;;;;;;6.87;5.80;;;;;;;18.39;70.15;101164.22;5025087;28;20187;-51
2022/04/29 09:07:54;;;;;;;6.67;6.07;;;;;;;18.27;68.89;101171.50;5017604;28;20187;-51
2022/04/29 09:10:20;;;;;;;5.83;5.23;;;;;;;18.63;69.02;101162.66;5027938;28;20252;-53
2022/04/29 09:12:46;;;;;;;7.43;6.13;;;;;;;18.74;67.53;101158.00;5028380;28;20205;-52
2022/04/29 09:15:13;;;;;;;7.10;6.40;;;;;;;18.76;67.11;101162.31;5019830;28;20207;-51
2022/04/29 09:17:45;;;;;;;6.37;5.57;;;;;;;18.97;67.03;101161.72;5022363;28;20202;-51
2022/04/29 09:20:18;;;;;;;8.37;6.30;;;;;;;19.00;64.78;101159.00;5025083;28;20228;-52
2022/04/29 09:22:51;;;;;;;6.57;5.97;;;;;;;18.98;64.81;101157.34;5024558;28;20194;-51
2022/04/29 09:25:17;;;;;;;6.47;5.87;;;;;;;19.07;65.75;101157.06;5018300;28;20187;-52
2022/04/29 09:28:00;;;;;;;6.97;5.63;;;;;;;19.21;64.28;101151.34;5014052;28;20196;-50
2022/04/29 09:30:35;;;;;;;8.17;5.80;;;;;;;19.25;63.89;101139.88;5019428;28;20214;-51
2022/04/29 09:33:01;;;;;;;5.70;5.20;;;;;;;19.35;64.15;101150.94;5020203;28;20196;-51
2022/04/29 09:35:39;;;;;;;5.93;5.40;;;;;;;19.04;64.77;101137.03;5019717;28;21818;-51
2022/04/29 09:40:53;;;;;;;6.70;6.00;;;;;;;19.34;64.07;101136.97;5020024;28;20735;-50
2022/04/29 09:43:35;;;;;;;6.73;5.67;;;;;;;19.23;64.19;101133.81;5016827;28;21000;-51
2022/04/29 09:46:18;;;;;;;7.20;5.80;;;;;;;19.02;64.83;101135.34;5019209;28;20256;-51
2022/04/29 09:49:08;;;;;;;7.33;5.70;;;;;;;18.97;64.51;101126.78;5023921;28;20193;-52
2022/04/29 09:51:44;;;;;;;7.33;5.97;;;;;;;18.80;64.80;101127.22;5034621;28;20210;-50
2022/04/29 09:54:23;;;;;;;6.43;5.90;;;;;;;19.07;64.08;101116.81;5017886;28;20197;-52
2022/04/29 09:57:03;;;;;;;6.50;5.90;;;;;;;19.34;63.64;101128.22;5025581;28;20245;-50
2022/04/29 09:59:33;;;;;;;5.73;5.13;;;;;;;19.15;63.39;101118.31;5030736;28;20282;-51
2022/04/29 10:01:59;;;;;;;6.63;5.90;;;;;;;19.02;63.70;101122.22;5019683;28;20318;-50
2022/04/29 10:04:25;;;;;;;6.27;5.67;;;;;;;19.30;63.89;101118.72;5017022;28;20195;-53
2022/04/29 10:06:51;;;;;;;6.60;6.00;;;;;;;19.08;63.62;101118.53;5013153;28;20203;-51
2022/04/29 10:09:19;;;;;;;11.03;6.80;;;;;;;19.00;63.63;101122.28;5015060;28;20198;-52
2022/04/29 10:11:44;;;;;;;6.00;5.50;;;;;;;18.95;64.50;101116.31;5020223;28;20279;-53
2022/04/29 10:14:14;;;;;;;7.20;6.47;;;;;;;18.84;63.91;101119.22;5023926;28;20593;-51
2022/04/29 10:16:44;;;;;;;7.00;6.03;;;;;;;19.08;63.88;101111.56;5015557;28;20228;-51
2022/04/29 10:22:03;;;;;;;6.23;5.47;;;;;;;19.88;62.44;101117.75;5020242;28;20276;-51
2022/04/29 10:24:29;;;;;;;6.97;5.93;;;;;;;19.87;62.52;101103.72;5020917;28;20712;-52
2022/04/29 10:26:57;;;;;;;6.53;5.93;;;;;;;20.01;62.51;101108.50;5018753;28;20191;-51
2022/04/29 10:29:22;;;;;;;7.23;6.20;;;;;;;19.89;61.60;101111.56;5020456;28;20192;-51
2022/04/29 10:32:07;;;;;;;6.13;5.60;;;;;;;20.10;61.14;101108.16;5022123;28;20261;-51
2022/04/29 10:34:34;;;;;;;6.50;6.00;;;;;;;20.31;60.27;101116.19;5021817;28;20732;-52
2022/04/29 10:37:01;;;;;;;6.40;5.53;;;;;;;20.36;59.56;101106.34;5015365;28;20247;-53
2022/04/29 10:39:27;;;;;;;5.67;5.17;;;;;;;20.35;59.27;101101.16;5019564;28;20283;-53
2022/04/29 10:42:00;;;;;;;5.67;5.17;;;;;;;19.97;59.55;101106.03;5004204;28;20274;-53
2022/04/29 10:44:25;;;;;;;6.17;4.90;;;;;;;20.10;60.34;101102.06;5016664;28;20199;-52
2022/04/29 10:46:51;;;;;;;7.07;5.30;;;;;;;20.06;59.58;101092.56;5015224;28;20191;-52
2022/04/29 10:49:27;;;;;;;4.80;4.40;;;;;;;20.08;59.10;101098.63;5023055;28;20192;-52
2022/04/29 10:51:54;;;;;;;4.90;4.50;;;;;;;20.02;58.06;101093.59;5019432;28;20705;-52
2022/04/29 10:54:35;;;;;;;6.90;5.27;;;;;;;19.90;55.89;101093.13;5021931;28;20207;-52
2022/04/29 10:57:04;;;;;;;5.47;4.97;;;;;;;19.69;56.50;101092.06;5018596;28;21111;-52
2022/04/29 10:59:48;;;;;;;8.07;4.87;;;;;;;19.60;56.89;101092.38;5019344;28;20226;-53
2022/04/29 11:02:23;;;;;;;5.17;4.67;;;;;;;19.78;57.41;101081.22;5022048;28;20230;-52
2022/04/29 11:04:48;;;;;;;6.57;5.47;;;;;;;19.84;55.98;101085.41;5023839;28;20674;-52
2022/04/29 11:07:39;;;;;;;7.33;4.63;;;;;;;19.54;55.19;101089.97;5019872;28;20215;-52
2022/04/29 11:10:06;;;;;;;8.83;4.37;;;;;;;19.67;54.95;101074.63;5019870;28;20208;-52
2022/04/29 11:12:37;;;;;;;6.93;4.53;;;;;;;19.71;53.72;101065.75;5019191;28;20257;-52
2022/04/29 11:15:09;;;;;;;5.93;4.53;;;;;;;19.88;53.66;101059.94;5024262;28;20684;-52
2022/04/29 11:17:36;;;;;;;4.60;4.20;;;;;;;19.90;53.89;101061.59;5019158;28;20246;-52
2022/04/29 11:20:16;;;;;;;4.80;3.60;;;;;;;19.80;55.30;101070.69;5023982;28;20222;-52
2022/04/29 11:25:53;;;;;;;12.00;4.50;;;;;;;19.97;54.36;101053.47;5018788;28;20924;-52
2022/04/29 11:28:19;;;;;;;4.93;4.53;;;;;;;19.94;54.58;101057.09;5020556;28;20303;-52
2022/04/29 11:30:47;;;;;;;4.63;4.23;;;;;;;19.92;53.36;101053.66;5025765;28;20627;-52
2022/04/29 11:33:12;;;;;;;5.03;4.33;;;;;;;20.00;53.83;101062.13;5014219;28;20685;-51
2022/04/29 11:35:39;;;;;;;5.77;4.10;;;;;;;19.89;54.31;101049.38;5024830;28;20219;-51
2022/04/29 11:38:07;;;;;;;5.83;4.17;;;;;;;20.20;54.02;101048.25;5016315;28;20751;-52
2022/04/29 11:40:37;;;;;;;4.63;4.10;;;;;;;20.30;54.55;101035.63;5018632;28;20207;-52
2022/04/29 11:43:07;;;;;;;5.10;4.47;;;;;;;20.14;53.47;101032.72;5022595;28;20189;-53
2022/04/29 11:45:33;;;;;;;5.03;4.53;;;;;;;19.91;53.80;101029.16;5013524;28;20544;-53
2022/04/29 11:48:05;;;;;;;5.03;4.27;;;;;;;19.95;55.63;101037.78;5018857;28;20196;-52
2022/04/29 11:50:32;;;;;;;6.47;4.50;;;;;;;19.75;54.04;101035.84;5023649;28;20273;-53
2022/04/29 11:53:08;;;;;;;7.37;4.87;;;;;;;19.55;54.48;101031.31;5019312;28;20216;-51
2022/04/29 11:55:34;;;;;;;6.47;4.50;;;;;;;19.79;54.43;101019.06;5023583;28;20222;-51